DAOB

Bou Chekif Airport

Tiaret, Algeria
METAR DAOB 202000Z 05010KT CAVOK 24/16 Q1019
Observed Flight Rules
Aug-20 @ 20:00 UTC (30 minutes ago) Visual Flight Rules
Wind Visibility Clouds
50° at 10 knots 10,000+ meters
  • Clear skies
Temperatures Readings
Current 24°C / 75°F
Dewpoint 16°C / 61°F
Humidity 61%
Altimeter 30.09" Hg
Pressure 1019 hPa
Elevation 989
METAR DAOB 202000Z 05010KT CAVOK 24/16 Q1019
Observed Flight Rules
Aug-20 @ 20:00 UTC
(30 minutes ago)
VFR
Wind Visibility
50° at 10 knots 10,000+ meters
Clouds
  • Clear skies
Temperature Dewpoint
24°C / 75°F 16°C / 61°F
Humidity Altimeter Pressure
61% 30.09" Hg 1019 hPa